sensor_id;sensor_type;location;lat;lon;timestamp;pressure;altitude;pressure_sealevel;temperature;humidity
73748;BME280;62056;52.130;5.428;2023-04-30T00:01:26;102636.88;;;9.35;66.57
73748;BME280;62056;52.130;5.428;2023-04-30T00:03:52;102635.50;;;9.32;65.91
73748;BME280;62056;52.130;5.428;2023-04-30T00:06:19;102627.97;;;9.29;66.27
73748;BME280;62056;52.130;5.428;2023-04-30T00:08:46;102623.16;;;9.26;64.62
73748;BME280;62056;52.130;5.428;2023-04-30T00:11:12;102627.09;;;9.23;66.27
73748;BME280;62056;52.130;5.428;2023-04-30T00:13:39;102628.34;;;9.21;66.22
73748;BME280;62056;52.130;5.428;2023-04-30T00:16:08;102626.38;;;9.16;65.66
73748;BME280;62056;52.130;5.428;2023-04-30T00:18:37;102623.72;;;9.16;67.30
73748;BME280;62056;52.130;5.428;2023-04-30T00:21:04;102631.13;;;9.14;66.54
73748;BME280;62056;52.130;5.428;2023-04-30T00:23:30;102630.53;;;9.12;66.08
73748;BME280;62056;52.130;5.428;2023-04-30T00:25:57;102627.09;;;9.11;66.76
73748;BME280;62056;52.130;5.428;2023-04-30T00:28:23;102633.44;;;9.10;66.65
73748;BME280;62056;52.130;5.428;2023-04-30T00:30:50;102628.59;;;9.07;66.23
73748;BME280;62056;52.130;5.428;2023-04-30T00:33:17;102628.00;;;9.05;66.87
73748;BME280;62056;52.130;5.428;2023-04-30T00:35:43;102625.84;;;9.02;66.78
73748;BME280;62056;52.130;5.428;2023-04-30T00:38:10;102618.31;;;8.99;67.34
73748;BME280;62056;52.130;5.428;2023-04-30T00:40:37;102625.72;;;8.97;67.06
73748;BME280;62056;52.130;5.428;2023-04-30T00:43:03;102634.13;;;8.94;66.95
73748;BME280;62056;52.130;5.428;2023-04-30T00:45:30;102627.44;;;8.91;66.63
73748;BME280;62056;52.130;5.428;2023-04-30T00:47:57;102639.31;;;8.89;67.62
73748;BME280;62056;52.130;5.428;2023-04-30T00:50:24;102640.81;;;8.85;67.08
73748;BME280;62056;52.130;5.428;2023-04-30T00:52:51;102640.50;;;8.81;67.67
73748;BME280;62056;52.130;5.428;2023-04-30T00:55:18;102643.47;;;8.73;66.71
73748;BME280;62056;52.130;5.428;2023-04-30T00:57:45;102644.84;;;8.64;66.42
73748;BME280;62056;52.130;5.428;2023-04-30T01:00:12;102647.38;;;8.59;68.02
73748;BME280;62056;52.130;5.428;2023-04-30T01:02:39;102655.34;;;8.59;69.36
73748;BME280;62056;52.130;5.428;2023-04-30T01:05:06;102653.13;;;8.56;68.68
73748;BME280;62056;52.130;5.428;2023-04-30T01:07:34;102650.47;;;8.56;67.71
73748;BME280;62056;52.130;5.428;2023-04-30T01:10:01;102648.88;;;8.55;68.61
73748;BME280;62056;52.130;5.428;2023-04-30T01:12:37;102647.25;;;8.54;69.20
73748;BME280;62056;52.130;5.428;2023-04-30T01:15:13;102654.16;;;8.55;69.26
73748;BME280;62056;52.130;5.428;2023-04-30T01:17:58;102654.16;;;8.55;68.01
73748;BME280;62056;52.130;5.428;2023-04-30T01:20:28;102655.66;;;8.50;68.02
73748;BME280;62056;52.130;5.428;2023-04-30T01:28:43;102649.50;;;8.38;68.92
73748;BME280;62056;52.130;5.428;2023-04-30T01:31:17;102657.31;;;8.33;69.49
73748;BME280;62056;52.130;5.428;2023-04-30T01:33:44;102662.47;;;8.28;69.26
73748;BME280;62056;52.130;5.428;2023-04-30T01:39:19;102653.47;;;8.17;70.77
73748;BME280;62056;52.130;5.428;2023-04-30T01:44:57;102653.56;;;8.10;72.19
73748;BME280;62056;52.130;5.428;2023-04-30T01:47:45;102650.91;;;8.10;71.57
73748;BME280;62056;52.130;5.428;2023-04-30T01:50:26;102658.88;;;8.10;70.44
73748;BME280;62056;52.130;5.428;2023-04-30T01:52:58;102654.78;;;8.08;69.87
73748;BME280;62056;52.130;5.428;2023-04-30T01:55:40;102660.94;;;8.08;70.32
73748;BME280;62056;52.130;5.428;2023-04-30T01:58:14;102662.53;;;8.09;70.59
73748;BME280;62056;52.130;5.428;2023-04-30T02:00:41;102664.38;;;8.09;69.70
73748;BME280;62056;52.130;5.428;2023-04-30T02:03:08;102664.97;;;8.11;69.75
73748;BME280;62056;52.130;5.428;2023-04-30T02:05:35;102672.13;;;8.10;69.53
73748;BME280;62056;52.130;5.428;2023-04-30T02:08:02;102673.94;;;8.10;69.15
73748;BME280;62056;52.130;5.428;2023-04-30T02:10:28;102671.28;;;8.10;69.41
73748;BME280;62056;52.130;5.428;2023-04-30T02:12:56;102670.47;;;8.09;69.30
73748;BME280;62056;52.130;5.428;2023-04-30T02:15:22;102664.38;;;8.09;69.32
73748;BME280;62056;52.130;5.428;2023-04-30T02:17:49;102666.88;;;8.04;69.38
73748;BME280;62056;52.130;5.428;2023-04-30T02:20:16;102668.13;;;8.01;69.28
73748;BME280;62056;52.130;5.428;2023-04-30T02:22:43;102664.69;;;8.01;69.87
73748;BME280;62056;52.130;5.428;2023-04-30T02:25:10;102671.25;;;7.98;70.27
73748;BME280;62056;52.130;5.428;2023-04-30T02:27:38;102672.94;;;7.93;69.53
73748;BME280;62056;52.130;5.428;2023-04-30T02:30:05;102664.88;;;7.87;70.37
73748;BME280;62056;52.130;5.428;2023-04-30T02:32:32;102664.03;;;7.87;69.63
73748;BME280;62056;52.130;5.428;2023-04-30T02:34:59;102661.41;;;7.87;70.12
73748;BME280;62056;52.130;5.428;2023-04-30T02:37:25;102660.59;;;7.86;70.21
73748;BME280;62056;52.130;5.428;2023-04-30T02:39:52;102655.28;;;7.86;70.36
73748;BME280;62056;52.130;5.428;2023-04-30T02:42:20;102653.69;;;7.85;70.52
73748;BME280;62056;52.130;5.428;2023-04-30T02:44:46;102659.19;;;7.84;70.73
73748;BME280;62056;52.130;5.428;2023-04-30T02:47:13;102658.41;;;7.83;70.47
73748;BME280;62056;52.130;5.428;2023-04-30T02:49:40;102652.53;;;7.81;70.02
73748;BME280;62056;52.130;5.428;2023-04-30T02:52:07;102653.53;;;7.80;70.13
73748;BME280;62056;52.130;5.428;2023-04-30T02:54:35;102651.94;;;7.79;70.70
73748;BME280;62056;52.130;5.428;2023-04-30T02:57:02;102649.50;;;7.78;70.53
73748;BME280;62056;52.130;5.428;2023-04-30T02:59:29;102651.34;;;7.77;70.69
73748;BME280;62056;52.130;5.428;2023-04-30T03:01:56;102646.47;;;7.74;70.88
73748;BME280;62056;52.130;5.428;2023-04-30T03:04:22;102645.69;;;7.74;71.02
73748;BME280;62056;52.130;5.428;2023-04-30T03:06:49;102650.97;;;7.74;70.71
73748;BME280;62056;52.130;5.428;2023-04-30T03:09:16;102649.59;;;7.71;71.04
73748;BME280;62056;52.130;5.428;2023-04-30T03:11:43;102638.41;;;7.69;70.91
73748;BME280;62056;52.130;5.428;2023-04-30T03:14:10;102643.91;;;7.67;70.80
73748;BME280;62056;52.130;5.428;2023-04-30T03:16:37;102648.63;;;7.65;70.73
73748;BME280;62056;52.130;5.428;2023-04-30T03:19:04;102654.13;;;7.64;71.23
73748;BME280;62056;52.130;5.428;2023-04-30T03:21:31;102648.25;;;7.62;70.34
73748;BME280;62056;52.130;5.428;2023-04-30T03:23:58;102638.34;;;7.57;70.50
73748;BME280;62056;52.130;5.428;2023-04-30T03:26:24;102648.56;;;7.54;71.11
73748;BME280;62056;52.130;5.428;2023-04-30T03:28:51;102643.34;;;7.47;71.29
73748;BME280;62056;52.130;5.428;2023-04-30T03:31:17;102641.19;;;7.37;70.92
73748;BME280;62056;52.130;5.428;2023-04-30T03:33:44;102642.91;;;7.32;71.17
73748;BME280;62056;52.130;5.428;2023-04-30T03:36:11;102647.59;;;7.29;71.29
73748;BME280;62056;52.130;5.428;2023-04-30T03:38:39;102641.72;;;7.27;72.22
73748;BME280;62056;52.130;5.428;2023-04-30T03:41:06;102637.22;;;7.28;71.96
73748;BME280;62056;52.130;5.428;2023-04-30T03:43:33;102636.19;;;7.29;72.21
73748;BME280;62056;52.130;5.428;2023-04-30T03:45:59;102643.31;;;7.28;72.61
73748;BME280;62056;52.130;5.428;2023-04-30T03:48:26;102631.13;;;7.27;71.56
73748;BME280;62056;52.130;5.428;2023-04-30T03:50:53;102632.94;;;7.27;72.21
73748;BME280;62056;52.130;5.428;2023-04-30T03:53:20;102630.31;;;7.27;72.34
73748;BME280;62056;52.130;5.428;2023-04-30T03:55:48;102625.00;;;7.27;72.91
73748;BME280;62056;52.130;5.428;2023-04-30T03:58:15;102629.72;;;7.25;72.33
73748;BME280;62056;52.130;5.428;2023-04-30T04:00:41;102634.00;;;7.26;71.85
73748;BME280;62056;52.130;5.428;2023-04-30T04:03:08;102631.56;;;7.24;72.05
73748;BME280;62056;52.130;5.428;2023-04-30T04:05:35;102637.91;;;7.23;71.99
73748;BME280;62056;52.130;5.428;2023-04-30T04:08:02;102642.59;;;7.21;71.60
73748;BME280;62056;52.130;5.428;2023-04-30T04:10:28;102632.00;;;7.21;71.84
73748;BME280;62056;52.130;5.428;2023-04-30T04:12:55;102632.22;;;7.20;72.13
73748;BME280;62056;52.130;5.428;2023-04-30T04:15:22;102639.34;;;7.19;72.05
73748;BME280;62056;52.130;5.428;2023-04-30T04:17:54;102628.19;;;7.17;72.18
73748;BME280;62056;52.130;5.428;2023-04-30T04:20:21;102640.63;;;7.17;72.37
73748;BME280;62056;52.130;5.428;2023-04-30T04:22:48;102630.25;;;7.15;71.28
73748;BME280;62056;52.130;5.428;2023-04-30T04:25:15;102629.44;;;7.15;72.65
73748;BME280;62056;52.130;5.428;2023-04-30T04:27:43;102628.59;;;7.14;73.46
73748;BME280;62056;52.130;5.428;2023-04-30T04:30:10;102626.19;;;7.13;73.53
73748;BME280;62056;52.130;5.428;2023-04-30T04:32:37;102626.41;;;7.11;72.59
73748;BME280;62056;52.130;5.428;2023-04-30T04:35:14;102631.72;;;7.11;72.96
73748;BME280;62056;52.130;5.428;2023-04-30T04:37:41;102630.91;;;7.11;73.44
73748;BME280;62056;52.130;5.428;2023-04-30T04:40:08;102629.06;;;7.11;73.54
73748;BME280;62056;52.130;5.428;2023-04-30T04:42:36;102630.91;;;7.11;73.39
73748;BME280;62056;52.130;5.428;2023-04-30T04:45:07;102634.56;;;7.09;73.96
73748;BME280;62056;52.130;5.428;2023-04-30T04:47:33;102639.84;;;7.09;73.14
73748;BME280;62056;52.130;5.428;2023-04-30T04:50:00;102647.00;;;7.09;72.79
73748;BME280;62056;52.130;5.428;2023-04-30T04:52:27;102648.59;;;7.10;73.67
73748;BME280;62056;52.130;5.428;2023-04-30T04:54:54;102650.00;;;7.13;74.55
73748;BME280;62056;52.130;5.428;2023-04-30T04:57:21;102650.38;;;7.16;73.97
73748;BME280;62056;52.130;5.428;2023-04-30T04:59:48;102637.50;;;7.20;73.80
73748;BME280;62056;52.130;5.428;2023-04-30T05:02:14;102641.72;;;7.27;75.31
73748;BME280;62056;52.130;5.428;2023-04-30T05:04:41;102638.78;;;7.36;76.75
73748;BME280;62056;52.130;5.428;2023-04-30T05:07:07;102641.34;;;7.42;76.83
73748;BME280;62056;52.130;5.428;2023-04-30T05:09:34;102638.63;;;7.49;77.56
73748;BME280;62056;52.130;5.428;2023-04-30T05:12:01;102631.41;;;7.56;77.68
73748;BME280;62056;52.130;5.428;2023-04-30T05:14:28;102631.69;;;7.66;78.05
73748;BME280;62056;52.130;5.428;2023-04-30T05:16:54;102632.81;;;7.77;78.54
73748;BME280;62056;52.130;5.428;2023-04-30T05:19:21;102619.84;;;7.87;78.80
73748;BME280;62056;52.130;5.428;2023-04-30T05:21:48;102635.53;;;8.01;79.47
73748;BME280;62056;52.130;5.428;2023-04-30T05:24:14;102629.72;;;8.10;78.83
73748;BME280;62056;52.130;5.428;2023-04-30T05:26:41;102641.50;;;8.26;79.29
73748;BME280;62056;52.130;5.428;2023-04-30T05:29:08;102645.38;;;8.42;78.86
73748;BME280;62056;52.130;5.428;2023-04-30T05:31:35;102650.47;;;8.56;78.96
73748;BME280;62056;52.130;5.428;2023-04-30T05:34:02;102647.16;;;8.72;79.36
73748;BME280;62056;52.130;5.428;2023-04-30T05:36:29;102645.91;;;8.86;78.94
73748;BME280;62056;52.130;5.428;2023-04-30T05:38:57;102646.59;;;9.05;78.82
73748;BME280;62056;52.130;5.428;2023-04-30T05:41:23;102648.06;;;9.25;79.29
73748;BME280;62056;52.130;5.428;2023-04-30T05:44:18;102650.56;;;9.43;78.75
73748;BME280;62056;52.130;5.428;2023-04-30T05:46:45;102656.53;;;9.62;78.65
73748;BME280;62056;52.130;5.428;2023-04-30T05:49:11;102655.00;;;9.78;78.76
73748;BME280;62056;52.130;5.428;2023-04-30T05:51:38;102662.00;;;9.96;77.92
73748;BME280;62056;52.130;5.428;2023-04-30T05:54:05;102662.84;;;10.13;77.87
73748;BME280;62056;52.130;5.428;2023-04-30T05:56:32;102659.88;;;10.27;76.23
73748;BME280;62056;52.130;5.428;2023-04-30T05:58:58;102660.97;;;10.43;76.68
73748;BME280;62056;52.130;5.428;2023-04-30T06:01:25;102665.41;;;10.54;75.72
73748;BME280;62056;52.130;5.428;2023-04-30T06:03:54;102667.44;;;10.64;75.54
73748;BME280;62056;52.130;5.428;2023-04-30T06:06:20;102671.78;;;10.70;75.83
73748;BME280;62056;52.130;5.428;2023-04-30T06:08:47;102668.97;;;10.77;75.62
73748;BME280;62056;52.130;5.428;2023-04-30T06:11:14;102673.31;;;10.83;74.18
73748;BME280;62056;52.130;5.428;2023-04-30T06:13:41;102676.94;;;10.93;74.15
73748;BME280;62056;52.130;5.428;2023-04-30T06:16:07;102669.38;;;11.02;74.08
73748;BME280;62056;52.130;5.428;2023-04-30T06:18:34;102671.06;;;11.08;73.84
73748;BME280;62056;52.130;5.428;2023-04-30T06:21:01;102679.44;;;11.17;73.69
73748;BME280;62056;52.130;5.428;2023-04-30T06:23:33;102676.34;;;11.25;73.84
73748;BME280;62056;52.130;5.428;2023-04-30T06:25:59;102681.72;;;11.30;72.73
73748;BME280;62056;52.130;5.428;2023-04-30T06:28:26;102678.88;;;11.37;72.34
73748;BME280;62056;52.130;5.428;2023-04-30T06:30:53;102680.56;;;11.43;72.09
73748;BME280;62056;52.130;5.428;2023-04-30T06:33:20;102677.47;;;11.51;72.05
73748;BME280;62056;52.130;5.428;2023-04-30T06:35:47;102676.72;;;11.56;72.36
73748;BME280;62056;52.130;5.428;2023-04-30T06:38:16;102678.94;;;11.64;72.32
73748;BME280;62056;52.130;5.428;2023-04-30T06:40:46;102677.72;;;11.72;72.72
73748;BME280;62056;52.130;5.428;2023-04-30T06:43:12;102674.28;;;11.77;72.12
73748;BME280;62056;52.130;5.428;2023-04-30T06:45:39;102680.88;;;11.91;72.53
73748;BME280;62056;52.130;5.428;2023-04-30T06:48:07;102674.63;;;12.02;71.71
73748;BME280;62056;52.130;5.428;2023-04-30T06:50:34;102676.88;;;12.15;72.46
73748;BME280;62056;52.130;5.428;2023-04-30T06:53:00;102673.53;;;12.25;72.02
73748;BME280;62056;52.130;5.428;2023-04-30T06:55:28;102680.78;;;12.35;70.42
73748;BME280;62056;52.130;5.428;2023-04-30T06:57:55;102678.78;;;12.47;71.39
73748;BME280;62056;52.130;5.428;2023-04-30T07:00:23;102668.69;;;12.54;71.12
73748;BME280;62056;52.130;5.428;2023-04-30T07:02:50;102674.91;;;12.65;69.58
73748;BME280;62056;52.130;5.428;2023-04-30T07:05:17;102676.88;;;12.75;71.27
73748;BME280;62056;52.130;5.428;2023-04-30T07:07:44;102676.09;;;12.80;67.51
73748;BME280;62056;52.130;5.428;2023-04-30T07:10:11;102673.16;;;12.81;70.42
73748;BME280;62056;52.130;5.428;2023-04-30T07:12:39;102684.09;;;12.80;70.21
73748;BME280;62056;52.130;5.428;2023-04-30T07:15:06;102681.44;;;12.80;69.63
73748;BME280;62056;52.130;5.428;2023-04-30T07:17:32;102683.34;;;12.84;69.91
73748;BME280;62056;52.130;5.428;2023-04-30T07:19:59;102685.22;;;12.84;69.83
73748;BME280;62056;52.130;5.428;2023-04-30T07:22:26;102684.38;;;12.83;69.91
73748;BME280;62056;52.130;5.428;2023-04-30T07:24:53;102690.25;;;12.80;65.89
73748;BME280;62056;52.130;5.428;2023-04-30T07:27:19;102693.72;;;12.81;69.60
73748;BME280;62056;52.130;5.428;2023-04-30T07:29:46;102689.72;;;12.83;69.74
73748;BME280;62056;52.130;5.428;2023-04-30T07:32:14;102683.59;;;12.83;68.48
73748;BME280;62056;52.130;5.428;2023-04-30T07:34:41;102693.22;;;12.84;68.82
73748;BME280;62056;52.130;5.428;2023-04-30T07:37:08;102684.38;;;12.83;67.81
73748;BME280;62056;52.130;5.428;2023-04-30T07:39:35;102687.59;;;12.85;68.79
73748;BME280;62056;52.130;5.428;2023-04-30T07:42:05;102685.22;;;12.84;68.48
73748;BME280;62056;52.130;5.428;2023-04-30T07:44:32;102688.69;;;12.89;68.51
73748;BME280;62056;52.130;5.428;2023-04-30T07:46:58;102694.56;;;12.86;64.88
73748;BME280;62056;52.130;5.428;2023-04-30T07:49:25;102687.13;;;12.93;66.83
73748;BME280;62056;52.130;5.428;2023-04-30T07:51:52;102686.38;;;12.98;68.07
73748;BME280;62056;52.130;5.428;2023-04-30T07:54:19;102693.59;;;13.03;66.89
73748;BME280;62056;52.130;5.428;2023-04-30T07:56:46;102677.06;;;13.06;66.97
73748;BME280;62056;52.130;5.428;2023-04-30T07:59:14;102678.97;;;13.10;67.26
73748;BME280;62056;52.130;5.428;2023-04-30T08:01:41;102680.88;;;13.15;66.08
73748;BME280;62056;52.130;5.428;2023-04-30T08:04:08;102681.97;;;13.19;66.58
73748;BME280;62056;52.130;5.428;2023-04-30T08:06:35;102675.03;;;13.28;66.58
73748;BME280;62056;52.130;5.428;2023-04-30T08:09:02;102679.38;;;13.29;66.38
73748;BME280;62056;52.130;5.428;2023-04-30T08:11:29;102668.44;;;13.36;66.29
73748;BME280;62056;52.130;5.428;2023-04-30T08:13:55;102675.69;;;13.41;66.43
73748;BME280;62056;52.130;5.428;2023-04-30T08:16:22;102677.28;;;13.42;64.12
73748;BME280;62056;52.130;5.428;2023-04-30T08:18:49;102669.00;;;13.43;65.89
73748;BME280;62056;52.130;5.428;2023-04-30T08:21:16;102671.44;;;13.50;65.07
73748;BME280;62056;52.130;5.428;2023-04-30T08:23:43;102675.97;;;13.49;65.57
73748;BME280;62056;52.130;5.428;2023-04-30T08:26:10;102673.59;;;13.53;65.29
73748;BME280;62056;52.130;5.428;2023-04-30T08:28:36;102673.34;;;13.60;64.41
73748;BME280;62056;52.130;5.428;2023-04-30T08:31:03;102679.28;;;13.67;65.03
73748;BME280;62056;52.130;5.428;2023-04-30T08:33:30;102678.72;;;13.70;64.43
73748;BME280;62056;52.130;5.428;2023-04-30T08:35:58;102673.13;;;13.71;63.83
73748;BME280;62056;52.130;5.428;2023-04-30T08:38:27;102671.00;;;13.73;64.31
73748;BME280;62056;52.130;5.428;2023-04-30T08:41:13;102674.78;;;13.88;63.22
73748;BME280;62056;52.130;5.428;2023-04-30T08:43:41;102671.06;;;13.94;63.89
73748;BME280;62056;52.130;5.428;2023-04-30T08:46:11;102673.72;;;13.99;63.04
73748;BME280;62056;52.130;5.428;2023-04-30T08:48:40;102667.31;;;14.05;62.37
73748;BME280;62056;52.130;5.428;2023-04-30T08:51:07;102671.34;;;14.13;62.36
73748;BME280;62056;52.130;5.428;2023-04-30T08:53:35;102667.88;;;14.17;62.69
73748;BME280;62056;52.130;5.428;2023-04-30T08:56:03;102666.56;;;14.25;62.73
73748;BME280;62056;52.130;5.428;2023-04-30T08:58:31;102663.06;;;14.25;58.25
73748;BME280;62056;52.130;5.428;2023-04-30T09:00:58;102676.19;;;14.31;61.49
73748;BME280;62056;52.130;5.428;2023-04-30T09:03:25;102666.56;;;14.41;61.17
73748;BME280;62056;52.130;5.428;2023-04-30T09:05:54;102666.03;;;14.49;61.07
73748;BME280;62056;52.130;5.428;2023-04-30T09:08:43;102666.31;;;14.57;58.49
73748;BME280;62056;52.130;5.428;2023-04-30T09:11:30;102661.22;;;14.61;57.60
73748;BME280;62056;52.130;5.428;2023-04-30T09:13:58;102657.75;;;14.66;59.23
73748;BME280;62056;52.130;5.428;2023-04-30T09:16:28;102659.59;;;14.70;59.92
73748;BME280;62056;52.130;5.428;2023-04-30T09:18:57;102665.75;;;14.76;59.15
73748;BME280;62056;52.130;5.428;2023-04-30T09:21:31;102658.78;;;14.80;57.31
73748;BME280;62056;52.130;5.428;2023-04-30T09:24:00;102650.47;;;14.87;58.57
73748;BME280;62056;52.130;5.428;2023-04-30T09:26:35;102652.59;;;14.95;58.44
73748;BME280;62056;52.130;5.428;2023-04-30T09:29:03;102653.38;;;15.06;59.13
73748;BME280;62056;52.130;5.428;2023-04-30T09:31:35;102649.09;;;15.15;59.35
73748;BME280;62056;52.130;5.428;2023-04-30T09:34:03;102639.41;;;15.19;58.53
73748;BME280;62056;52.130;5.428;2023-04-30T09:36:30;102641.00;;;15.25;57.92
73748;BME280;62056;52.130;5.428;2023-04-30T09:39:10;102636.94;;;15.33;56.94
73748;BME280;62056;52.130;5.428;2023-04-30T09:41:41;102642.03;;;15.40;57.42
73748;BME280;62056;52.130;5.428;2023-04-30T09:44:27;102637.16;;;15.47;55.10
73748;BME280;62056;52.130;5.428;2023-04-30T09:46:55;102638.75;;;15.48;57.51
73748;BME280;62056;52.130;5.428;2023-04-30T09:49:26;102647.03;;;15.56;57.64
73748;BME280;62056;52.130;5.428;2023-04-30T09:51:54;102646.47;;;15.59;54.27
73748;BME280;62056;52.130;5.428;2023-04-30T09:54:27;102636.25;;;15.67;56.83
73748;BME280;62056;52.130;5.428;2023-04-30T09:56:57;102636.25;;;15.72;56.30
73748;BME280;62056;52.130;5.428;2023-04-30T09:59:28;102636.50;;;15.75;54.61
73748;BME280;62056;52.130;5.428;2023-04-30T10:02:02;102636.19;;;15.77;56.11
73748;BME280;62056;52.130;5.428;2023-04-30T10:04:35;102617.41;;;15.82;55.57
73748;BME280;62056;52.130;5.428;2023-04-30T10:07:15;102625.19;;;15.84;55.92
73748;BME280;62056;52.130;5.428;2023-04-30T10:09:54;102620.09;;;15.82;53.88
73748;BME280;62056;52.130;5.428;2023-04-30T10:12:42;102618.94;;;15.93;54.45
73748;BME280;62056;52.130;5.428;2023-04-30T10:15:33;102621.88;;;15.97;54.68
73748;BME280;62056;52.130;5.428;2023-04-30T10:18:09;102615.66;;;16.02;55.38
73748;BME280;62056;52.130;5.428;2023-04-30T10:21:06;102608.09;;;16.09;54.80
73748;BME280;62056;52.130;5.428;2023-04-30T10:23:44;102612.38;;;16.10;54.87
73748;BME280;62056;52.130;5.428;2023-04-30T10:26:17;102606.47;;;16.13;54.86
73748;BME280;62056;52.130;5.428;2023-04-30T10:28:55;102612.56;;;16.18;53.72
73748;BME280;62056;52.130;5.428;2023-04-30T10:31:30;102612.81;;;16.22;53.91
73748;BME280;62056;52.130;5.428;2023-04-30T10:34:32;102602.28;;;16.31;54.11
73748;BME280;62056;52.130;5.428;2023-04-30T10:37:14;102607.38;;;16.32;51.92
73748;BME280;62056;52.130;5.428;2023-04-30T10:39:49;102599.28;;;16.37;52.95
73748;BME280;62056;52.130;5.428;2023-04-30T10:42:17;102601.63;;;16.44;53.33
73748;BME280;62056;52.130;5.428;2023-04-30T10:44:44;102597.56;;;16.47;51.65
73748;BME280;62056;52.130;5.428;2023-04-30T10:47:11;102595.94;;;16.51;52.54
73748;BME280;62056;52.130;5.428;2023-04-30T10:49:37;102593.50;;;16.49;51.41
73748;BME280;62056;52.130;5.428;2023-04-30T10:52:04;102588.28;;;16.63;51.73
73748;BME280;62056;52.130;5.428;2023-04-30T10:54:35;102595.25;;;16.64;51.20
73748;BME280;62056;52.130;5.428;2023-04-30T10:57:12;102585.25;;;16.70;51.33
73748;BME280;62056;52.130;5.428;2023-04-30T10:59:52;102575.78;;;16.77;51.27
73748;BME280;62056;52.130;5.428;2023-04-30T11:02:19;102578.44;;;16.83;51.79
73748;BME280;62056;52.130;5.428;2023-04-30T11:07:34;102572.88;;;16.98;51.95
73748;BME280;62056;52.130;5.428;2023-04-30T11:10:02;102571.44;;;17.06;51.74
73748;BME280;62056;52.130;5.428;2023-04-30T11:12:29;102563.53;;;17.14;51.72
73748;BME280;62056;52.130;5.428;2023-04-30T11:15:11;102568.09;;;17.14;51.05
73748;BME280;62056;52.130;5.428;2023-04-30T11:17:38;102566.72;;;17.16;51.50
73748;BME280;62056;52.130;5.428;2023-04-30T11:20:06;102557.22;;;17.24;51.23
73748;BME280;62056;52.130;5.428;2023-04-30T11:22:37;102548.88;;;17.26;50.82
73748;BME280;62056;52.130;5.428;2023-04-30T11:25:06;102555.28;;;17.30;50.45
73748;BME280;62056;52.130;5.428;2023-04-30T11:27:39;102556.28;;;17.34;50.59
73748;BME280;62056;52.130;5.428;2023-04-30T11:30:11;102549.94;;;17.44;50.58
73748;BME280;62056;52.130;5.428;2023-04-30T11:32:39;102548.28;;;17.48;50.26
73748;BME280;62056;52.130;5.428;2023-04-30T11:35:06;102537.97;;;17.55;48.62
73748;BME280;62056;52.130;5.428;2023-04-30T11:37:35;102534.69;;;17.58;48.97
73748;BME280;62056;52.130;5.428;2023-04-30T11:40:05;102531.19;;;17.57;49.45
73748;BME280;62056;52.130;5.428;2023-04-30T11:42:34;102528.13;;;17.64;49.55
73748;BME280;62056;52.130;5.428;2023-04-30T11:45:05;102528.25;;;17.73;49.06
73748;BME280;62056;52.130;5.428;2023-04-30T11:47:42;102527.97;;;17.74;48.70
73748;BME280;62056;52.130;5.428;2023-04-30T11:50:11;102519.91;;;17.74;49.04
73748;BME280;62056;52.130;5.428;2023-04-30T11:52:39;102520.41;;;17.76;49.11
73748;BME280;62056;52.130;5.428;2023-04-30T11:55:16;102510.28;;;17.87;48.81
73748;BME280;62056;52.130;5.428;2023-04-30T11:57:49;102508.31;;;17.93;48.80
73748;BME280;62056;52.130;5.428;2023-04-30T12:00:17;102504.97;;;18.01;48.94
73748;BME280;62056;52.130;5.428;2023-04-30T12:02:47;102508.94;;;18.04;48.01
73748;BME280;62056;52.130;5.428;2023-04-30T12:05:19;102506.97;;;18.09;48.62
73748;BME280;62056;52.130;5.428;2023-04-30T12:07:54;102492.31;;;18.15;48.06
73748;BME280;62056;52.130;5.428;2023-04-30T12:10:22;102502.41;;;18.24;48.15
73748;BME280;62056;52.130;5.428;2023-04-30T12:12:51;102496.53;;;18.35;47.83
73748;BME280;62056;52.130;5.428;2023-04-30T12:15:21;102497.50;;;18.39;48.07
73748;BME280;62056;52.130;5.428;2023-04-30T12:17:57;102496.31;;;18.46;47.99
73748;BME280;62056;52.130;5.428;2023-04-30T12:20:26;102493.53;;;18.51;47.21
73748;BME280;62056;52.130;5.428;2023-04-30T12:22:54;102496.94;;;18.56;47.22
73748;BME280;62056;52.130;5.428;2023-04-30T12:25:22;102480.84;;;18.65;46.98
73748;BME280;62056;52.130;5.428;2023-04-30T12:27:53;102483.75;;;18.69;46.88
73748;BME280;62056;52.130;5.428;2023-04-30T12:30:21;102480.56;;;18.67;46.66
73748;BME280;62056;52.130;5.428;2023-04-30T12:32:50;102480.44;;;18.72;46.27
73748;BME280;62056;52.130;5.428;2023-04-30T12:35:21;102476.78;;;18.82;46.64
73748;BME280;62056;52.130;5.428;2023-04-30T12:37:49;102477.28;;;18.84;46.43
73748;BME280;62056;52.130;5.428;2023-04-30T12:40:19;102480.75;;;18.84;45.93
73748;BME280;62056;52.130;5.428;2023-04-30T12:42:47;102469.25;;;18.92;46.41
73748;BME280;62056;52.130;5.428;2023-04-30T12:45:50;102467.06;;;18.94;44.63
73748;BME280;62056;52.130;5.428;2023-04-30T12:48:20;102465.44;;;18.93;44.36
73748;BME280;62056;52.130;5.428;2023-04-30T12:50:51;102466.13;;;18.99;44.74
73748;BME280;62056;52.130;5.428;2023-04-30T12:53:19;102469.34;;;19.01;45.30
73748;BME280;62056;52.130;5.428;2023-04-30T12:56:06;102459.59;;;19.14;44.87
73748;BME280;62056;52.130;5.428;2023-04-30T12:58:33;102455.31;;;19.13;44.83
73748;BME280;62056;52.130;5.428;2023-04-30T13:01:02;102454.41;;;19.17;44.92
73748;BME280;62056;52.130;5.428;2023-04-30T13:03:28;102446.50;;;19.21;45.03
73748;BME280;62056;52.130;5.428;2023-04-30T13:05:56;102445.63;;;19.34;44.36
73748;BME280;62056;52.130;5.428;2023-04-30T13:08:24;102445.84;;;19.38;44.36
73748;BME280;62056;52.130;5.428;2023-04-30T13:10:50;102441.84;;;19.35;43.72
73748;BME280;62056;52.130;5.428;2023-04-30T13:13:17;102446.31;;;19.40;43.54
73748;BME280;62056;52.130;5.428;2023-04-30T13:15:45;102439.69;;;19.46;43.85
73748;BME280;62056;52.130;5.428;2023-04-30T13:18:12;102440.44;;;19.60;43.36
73748;BME280;62056;52.130;5.428;2023-04-30T13:20:41;102433.59;;;19.63;43.48